Larslan, Montana
Current Conditions -  °F | °C
As of 6:53 PM on Saturday 25 Oct 2014 (Local Time) from KGGW Reporting Station
Clear Clear  
Wind Chill: 56°   Ceiling: Unl
Heat Index: 56°   Visibility: 10mi
Dew Point: 31°   Wind: 17mph
Humidity: 39%   Direction: 100°E
Pressure: 29.74"   Gusts: NA
Location:  48.58°N, 106.19°W
Report Text: KGGW 260053Z AUTO 10015KT 10SM CLR 13/M01 A2974 RMK AO2 SLP083 T01331006 $
Loading
Personal Weather Stations






























Interactive Weather Map
Tropical Storm Tracking
New forecast layout! Learn more

10-Day Weather Forecast

Advertisements
Track Severe Weather on mobile